Time;durP1;ratioP1;P1;durP2;ratioP2;P2;SDS_P1;SDS_P2;PMS_P1;PMS_P2;Temp;Humidity;BMP_temperature;BMP_pressure;BME280_temperature;BME280_humidity;BME280_pressure;Samples;Min_cycle;Max_cycle;Signal;HPM_P1;HPM_P2
2024/02/21 00:01:20;;;;;;;;;;;7.10;99.90;;;;;;4925659;29;19922;-75
2024/02/21 00:03:49;;;;;;;;;;;7.00;99.90;;;;;;4913175;29;20391;-75
2024/02/21 00:06:17;;;;;;;;;;;7.00;99.90;;;;;;4914275;29;19923;-76
2024/02/21 00:08:45;;;;;;;;;;;7.00;99.90;;;;;;4914531;29;20444;-75
2024/02/21 00:11:14;;;;;;;;;;;7.00;99.90;;;;;;4917971;29;19930;-75
2024/02/21 00:13:42;;;;;;;;;;;6.90;99.90;;;;;;4929588;29;19922;-74
2024/02/21 00:16:13;;;;;;;;;;;6.90;99.90;;;;;;4932805;29;19962;-75
2024/02/21 00:18:42;;;;;;;;;;;6.90;99.90;;;;;;4916133;29;20388;-74
2024/02/21 00:21:14;;;;;;;;;;;6.90;99.90;;;;;;4889219;29;20117;-75
2024/02/21 00:23:43;;;;;;;;;;;6.90;99.90;;;;;;4877066;29;20007;-75
2024/02/21 00:26:13;;;;;;;;;;;7.00;99.90;;;;;;4879705;29;19924;-75
2024/02/21 00:28:42;;;;;;;;;;;7.00;99.90;;;;;;4878996;29;19931;-75
2024/02/21 00:31:12;;;;;;;;;;;7.00;99.90;;;;;;4879420;29;19951;-75
2024/02/21 00:33:40;;;;;;;;;;;7.00;99.90;;;;;;4877716;29;19959;-74
2024/02/21 00:36:09;;;;;;;;;;;7.00;99.90;;;;;;4880609;29;19927;-77
2024/02/21 00:38:37;;;;;;;;;;;7.00;99.90;;;;;;4887780;29;20345;-76
2024/02/21 00:41:07;;;;;;;;;;;7.00;99.90;;;;;;4883754;29;19931;-76
2024/02/21 00:43:36;;;;;;;;;;;7.00;99.90;;;;;;4885120;29;19927;-75
2024/02/21 00:46:06;;;;;;;;;;;7.00;99.90;;;;;;4881575;29;19923;-76
2024/02/21 00:48:36;;;;;;;;;;;7.00;99.90;;;;;;4867351;29;19928;-75
2024/02/21 00:51:04;;;;;;;;;;;7.10;99.90;;;;;;4867555;29;19968;-77
2024/02/21 00:53:33;;;;;;;;;;;7.10;99.90;;;;;;4920996;29;19927;-75
2024/02/21 00:56:01;;;;;;;;;;;7.10;99.90;;;;;;4926193;29;19923;-75
2024/02/21 00:58:29;;;;;;;;;;;7.10;99.90;;;;;;4932362;29;19931;-75
2024/02/21 01:00:58;;;;;;;;;;;7.10;99.90;;;;;;4933436;29;19923;-76
2024/02/21 01:03:26;;;;;;;;;;;7.10;99.90;;;;;;4912766;29;19923;-75
2024/02/21 01:05:56;;;;;;;;;;;7.10;99.90;;;;;;4916160;29;20403;-75
2024/02/21 01:08:24;;;;;;;;;;;7.10;99.90;;;;;;4911124;29;19924;-74
2024/02/21 01:10:53;;;;;;;;;;;7.10;99.90;;;;;;4934320;29;19993;-75
2024/02/21 01:13:22;;;;;;;;;;;7.10;99.90;;;;;;4933077;29;19929;-75
2024/02/21 01:15:51;;;;;;;;;;;7.10;99.90;;;;;;4915067;29;19934;-76
2024/02/21 01:18:19;;;;;;;;;;;7.00;99.90;;;;;;4914283;29;19926;-75
2024/02/21 01:20:48;;;;;;;;;;;7.10;99.90;;;;;;4905205;29;20383;-76
2024/02/21 01:23:17;;;;;;;;;;;7.00;99.90;;;;;;4907500;29;19958;-75
2024/02/21 01:25:46;;;;;;;;;;;7.00;99.90;;;;;;4928740;29;20340;-75
2024/02/21 01:28:14;;;;;;;;;;;7.00;99.90;;;;;;4912799;29;19929;-75
2024/02/21 01:30:43;;;;;;;;;;;7.00;99.90;;;;;;4916219;29;19930;-75
2024/02/21 01:33:13;;;;;;;;;;;7.10;99.90;;;;;;4916036;29;19926;-75
2024/02/21 01:35:42;;;;;;;;;;;7.10;99.90;;;;;;4913326;29;19933;-75
2024/02/21 01:38:10;;;;;;;;;;;7.10;99.90;;;;;;4914307;29;20013;-76
2024/02/21 01:40:40;;;;;;;;;;;7.10;99.90;;;;;;4910872;29;19931;-75
2024/02/21 01:43:16;;;;;;;;;;;7.00;99.90;;;;;;4923837;29;19942;-75
2024/02/21 01:45:45;;;;;;;;;;;7.00;99.90;;;;;;4927737;29;19923;-76
2024/02/21 01:48:14;;;;;;;;;;;7.00;99.90;;;;;;4929469;29;19927;-75
2024/02/21 01:50:43;;;;;;;;;;;7.00;99.90;;;;;;4924388;29;20303;-77
2024/02/21 01:53:17;;;;;;;;;;;7.00;99.90;;;;;;4932962;29;20273;-76
2024/02/21 01:55:47;;;;;;;;;;;7.00;99.90;;;;;;4910805;29;19922;-76
2024/02/21 01:58:21;;;;;;;;;;;7.00;99.90;;;;;;4926932;29;19931;-75
2024/02/21 02:00:49;;;;;;;;;;;7.00;99.90;;;;;;4916237;29;20281;-76
2024/02/21 02:03:20;;;;;;;;;;;7.00;99.90;;;;;;4914496;29;19949;-75
2024/02/21 02:05:51;;;;;;;;;;;7.00;99.90;;;;;;4929299;29;19923;-75
2024/02/21 02:08:22;;;;;;;;;;;7.00;99.90;;;;;;4911344;29;19970;-76
2024/02/21 02:10:56;;;;;;;;;;;7.00;99.90;;;;;;4913298;29;19930;-75
2024/02/21 02:13:24;;;;;;;;;;;7.00;99.90;;;;;;4924639;29;19923;-75
2024/02/21 02:15:53;;;;;;;;;;;7.00;99.90;;;;;;4928318;29;20014;-75
2024/02/21 02:18:21;;;;;;;;;;;6.90;99.90;;;;;;4930199;29;19954;-75
2024/02/21 02:20:50;;;;;;;;;;;6.90;99.90;;;;;;4930012;29;19926;-75
2024/02/21 02:23:23;;;;;;;;;;;6.90;99.90;;;;;;4932278;29;20284;-75
2024/02/21 02:25:52;;;;;;;;;;;6.90;99.90;;;;;;4930287;29;19946;-75
2024/02/21 02:28:27;;;;;;;;;;;6.90;99.90;;;;;;4909948;29;20401;-74
2024/02/21 02:30:58;;;;;;;;;;;6.90;99.90;;;;;;4915893;29;19930;-75
2024/02/21 02:33:27;;;;;;;;;;;6.90;99.90;;;;;;4936885;29;19982;-75
2024/02/21 02:35:57;;;;;;;;;;;6.90;99.90;;;;;;4933998;29;19953;-74
2024/02/21 02:38:28;;;;;;;;;;;6.90;99.90;;;;;;4912033;29;20441;-74
2024/02/21 02:40:57;;;;;;;;;;;6.80;99.90;;;;;;4913264;29;20468;-75
2024/02/21 02:43:25;;;;;;;;;;;6.80;99.90;;;;;;4913147;29;19938;-76
2024/02/21 02:45:55;;;;;;;;;;;6.90;99.90;;;;;;4911640;29;19923;-75
2024/02/21 02:48:23;;;;;;;;;;;6.90;99.90;;;;;;4913147;29;20009;-75
2024/02/21 02:50:52;;;;;;;;;;;6.80;99.90;;;;;;4893598;29;20451;-75
2024/02/21 02:53:21;;;;;;;;;;;6.80;99.90;;;;;;4897009;29;20321;-75
2024/02/21 02:55:51;;;;;;;;;;;6.80;99.90;;;;;;4894568;29;19923;-75
2024/02/21 02:58:23;;;;;;;;;;;6.80;99.90;;;;;;4898594;29;19923;-75
2024/02/21 03:00:51;;;;;;;;;;;6.80;99.90;;;;;;4896414;29;20409;-75
2024/02/21 03:03:20;;;;;;;;;;;6.80;99.90;;;;;;4897811;29;19923;-76
2024/02/21 03:05:50;;;;;;;;;;;6.70;99.90;;;;;;4913301;29;19927;-75
2024/02/21 03:08:19;;;;;;;;;;;6.80;99.90;;;;;;4899019;29;19923;-75
2024/02/21 03:10:47;;;;;;;;;;;6.80;99.90;;;;;;4930489;29;19927;-76
2024/02/21 03:13:18;;;;;;;;;;;6.70;99.90;;;;;;4923183;29;20451;-75
2024/02/21 03:15:46;;;;;;;;;;;6.80;99.90;;;;;;4917996;29;19954;-77
2024/02/21 03:18:15;;;;;;;;;;;6.80;99.90;;;;;;4916444;29;19927;-76
2024/02/21 03:20:43;;;;;;;;;;;6.90;99.90;;;;;;4910757;29;20320;-76
2024/02/21 03:23:16;;;;;;;;;;;6.90;99.90;;;;;;4910744;29;19923;-76
2024/02/21 03:25:44;;;;;;;;;;;6.90;99.90;;;;;;4904395;29;19934;-76
2024/02/21 03:28:13;;;;;;;;;;;6.90;99.90;;;;;;4899619;29;20017;-76
2024/02/21 03:30:43;;;;;;;;;;;6.80;99.90;;;;;;4917222;29;19931;-75
2024/02/21 03:33:12;;;;;;;;;;;6.90;99.90;;;;;;4914895;29;19927;-76
2024/02/21 03:35:40;;;;;;;;;;;6.90;99.90;;;;;;4912978;29;19923;-75
2024/02/21 03:38:09;;;;;;;;;;;6.90;99.90;;;;;;4898810;29;20324;-75
2024/02/21 03:40:38;;;;;;;;;;;6.80;99.90;;;;;;4913316;29;19924;-75
2024/02/21 03:43:06;;;;;;;;;;;6.80;99.90;;;;;;4889783;29;20039;-76
2024/02/21 03:45:36;;;;;;;;;;;6.80;99.90;;;;;;4897575;29;19923;-75
2024/02/21 03:48:06;;;;;;;;;;;6.80;99.90;;;;;;4889244;29;20018;-75
2024/02/21 03:51:09;;;;;;;;;;;6.80;99.90;;;;;;4895254;29;19923;-76
2024/02/21 03:53:40;;;;;;;;;;;6.80;99.90;;;;;;4902941;29;19962;-75
2024/02/21 03:56:08;;;;;;;;;;;6.80;99.90;;;;;;4910484;29;19923;-75
2024/02/21 03:58:40;;;;;;;;;;;6.80;99.90;;;;;;4909811;29;19950;-74
2024/02/21 04:01:08;;;;;;;;;;;6.80;99.90;;;;;;4919643;29;19923;-74
2024/02/21 04:03:38;;;;;;;;;;;6.80;99.90;;;;;;4929004;29;19987;-74
2024/02/21 04:06:07;;;;;;;;;;;6.70;99.90;;;;;;4916393;29;19951;-74
2024/02/21 04:08:36;;;;;;;;;;;6.70;99.90;;;;;;4926548;29;19923;-74
2024/02/21 04:11:06;;;;;;;;;;;6.70;99.90;;;;;;4898331;29;19930;-74
2024/02/21 04:13:36;;;;;;;;;;;6.70;99.90;;;;;;4911228;29;20384;-73
2024/02/21 04:16:05;;;;;;;;;;;6.70;99.90;;;;;;4898922;29;19974;-74
2024/02/21 04:18:34;;;;;;;;;;;6.60;99.90;;;;;;4893899;29;20014;-73
2024/02/21 04:21:07;;;;;;;;;;;6.60;99.90;;;;;;4898484;29;20363;-74
2024/02/21 04:23:56;;;;;;;;;;;6.60;99.90;;;;;;4891233;29;20437;-73
2024/02/21 04:26:24;;;;;;;;;;;6.60;99.90;;;;;;4892599;29;20387;-74
2024/02/21 04:28:53;;;;;;;;;;;6.50;99.90;;;;;;4895845;29;19958;-73
2024/02/21 04:31:22;;;;;;;;;;;6.50;99.90;;;;;;4896416;29;19927;-75
2024/02/21 04:33:50;;;;;;;;;;;6.40;99.90;;;;;;4881265;29;19923;-75
2024/02/21 04:36:20;;;;;;;;;;;6.40;99.90;;;;;;4888126;29;20393;-75
2024/02/21 04:38:48;;;;;;;;;;;6.30;99.90;;;;;;4879865;29;20307;-74
2024/02/21 04:41:17;;;;;;;;;;;6.30;99.90;;;;;;4882203;29;20444;-74
2024/02/21 04:43:46;;;;;;;;;;;6.20;99.90;;;;;;4881679;29;20368;-74
2024/02/21 04:46:17;;;;;;;;;;;6.20;99.90;;;;;;4887485;29;20428;-75
2024/02/21 04:48:46;;;;;;;;;;;6.10;99.90;;;;;;4876807;29;20101;-73
2024/02/21 04:51:14;;;;;;;;;;;6.00;99.90;;;;;;4873097;29;19941;-75
2024/02/21 04:53:44;;;;;;;;;;;6.10;99.90;;;;;;4877246;29;23690;-74
2024/02/21 04:56:14;;;;;;;;;;;6.00;99.90;;;;;;4878290;29;20018;-75
2024/02/21 04:58:42;;;;;;;;;;;6.00;99.90;;;;;;4851130;29;19924;-75
2024/02/21 05:01:11;;;;;;;;;;;6.00;99.90;;;;;;4849881;29;19974;-75
2024/02/21 05:03:39;;;;;;;;;;;5.90;99.90;;;;;;4837005;29;19927;-75
2024/02/21 05:06:08;;;;;;;;;;;5.90;99.90;;;;;;4858559;29;19928;-75
2024/02/21 05:08:37;;;;;;;;;;;5.90;99.90;;;;;;4865926;29;19931;-74
2024/02/21 05:11:07;;;;;;;;;;;5.90;99.90;;;;;;4862410;29;19988;-75
2024/02/21 05:13:36;;;;;;;;;;;5.80;99.90;;;;;;4855932;29;19971;-74
2024/02/21 05:16:06;;;;;;;;;;;5.80;99.90;;;;;;4860167;29;19923;-75
2024/02/21 05:18:34;;;;;;;;;;;5.80;99.90;;;;;;4869403;29;19951;-75
2024/02/21 05:21:03;;;;;;;;;;;5.70;99.90;;;;;;4868237;29;20013;-75
2024/02/21 05:23:32;;;;;;;;;;;5.70;99.90;;;;;;4872309;29;20026;-74
2024/02/21 05:26:00;;;;;;;;;;;5.60;99.90;;;;;;4858269;29;19924;-76
2024/02/21 05:28:31;;;;;;;;;;;5.60;99.90;;;;;;4858170;29;19931;-73
2024/02/21 05:31:00;;;;;;;;;;;5.60;99.90;;;;;;4908519;29;19965;-75
2024/02/21 05:33:28;;;;;;;;;;;5.60;99.90;;;;;;4894767;29;19923;-75
2024/02/21 05:35:57;;;;;;;;;;;5.70;99.90;;;;;;4893518;29;20008;-75
2024/02/21 05:38:25;;;;;;;;;;;5.60;99.90;;;;;;4912392;29;20006;-75
2024/02/21 05:40:54;;;;;;;;;;;5.60;99.90;;;;;;4893449;29;19930;-75
2024/02/21 05:43:23;;;;;;;;;;;5.70;99.90;;;;;;4910470;29;19923;-75
2024/02/21 05:45:52;;;;;;;;;;;5.60;99.90;;;;;;4913336;29;20009;-76
2024/02/21 05:48:21;;;;;;;;;;;5.60;99.90;;;;;;4912708;29;19923;-75
2024/02/21 05:50:49;;;;;;;;;;;5.60;99.90;;;;;;4897388;29;19935;-75
2024/02/21 05:53:18;;;;;;;;;;;5.60;99.90;;;;;;4907818;29;19935;-75
2024/02/21 05:55:47;;;;;;;;;;;5.60;99.90;;;;;;4911220;29;19923;-75
2024/02/21 05:58:16;;;;;;;;;;;5.60;99.90;;;;;;4896102;29;19927;-75
2024/02/21 06:00:44;;;;;;;;;;;5.60;99.90;;;;;;4912457;29;19978;-75
2024/02/21 06:03:14;;;;;;;;;;;5.60;99.90;;;;;;4894683;29;20029;-75
2024/02/21 06:05:42;;;;;;;;;;;5.50;99.90;;;;;;4895487;29;19938;-75
2024/02/21 06:08:10;;;;;;;;;;;5.60;99.90;;;;;;4913692;29;20042;-75
2024/02/21 06:10:38;;;;;;;;;;;5.50;99.90;;;;;;4928211;29;19966;-74
2024/02/21 06:13:07;;;;;;;;;;;5.60;99.90;;;;;;4918394;29;19923;-74
2024/02/21 06:15:35;;;;;;;;;;;5.60;99.90;;;;;;4932708;29;19985;-75
2024/02/21 06:18:03;;;;;;;;;;;5.50;99.90;;;;;;4918738;29;20025;-75
2024/02/21 06:20:33;;;;;;;;;;;5.50;99.90;;;;;;4924754;29;19922;-75
2024/02/21 06:23:01;;;;;;;;;;;5.50;99.90;;;;;;4932519;29;19927;-75
2024/02/21 06:25:29;;;;;;;;;;;5.60;99.90;;;;;;4916747;29;20034;-75
2024/02/21 06:27:58;;;;;;;;;;;5.60;99.90;;;;;;4928746;29;19990;-75
2024/02/21 06:30:26;;;;;;;;;;;5.60;99.90;;;;;;4913223;29;19922;-75
2024/02/21 06:32:55;;;;;;;;;;;5.70;99.90;;;;;;4931766;29;19945;-74
2024/02/21 06:35:25;;;;;;;;;;;5.70;99.90;;;;;;4918014;29;20013;-74
2024/02/21 06:37:54;;;;;;;;;;;5.70;99.90;;;;;;4910650;29;20415;-75
2024/02/21 06:40:23;;;;;;;;;;;5.80;99.90;;;;;;4915752;29;20384;-75
2024/02/21 06:42:52;;;;;;;;;;;5.90;99.90;;;;;;4933679;29;19923;-75
2024/02/21 06:45:21;;;;;;;;;;;5.90;99.90;;;;;;4933785;29;19933;-75
2024/02/21 06:47:49;;;;;;;;;;;5.90;99.90;;;;;;4916429;29;19926;-75
2024/02/21 06:50:21;;;;;;;;;;;6.00;99.90;;;;;;4918323;29;20050;-76
2024/02/21 06:52:49;;;;;;;;;;;6.00;99.90;;;;;;4868620;29;19929;-76
2024/02/21 06:55:23;;;;;;;;;;;6.10;99.90;;;;;;4935287;29;19933;-75
2024/02/21 06:57:51;;;;;;;;;;;6.10;99.90;;;;;;4876994;29;19923;-75
2024/02/21 07:00:20;;;;;;;;;;;6.20;99.90;;;;;;4936906;29;19923;-76
2024/02/21 07:02:52;;;;;;;;;;;6.30;99.90;;;;;;4935617;29;19930;-74
2024/02/21 07:05:20;;;;;;;;;;;6.30;99.90;;;;;;4919751;29;19926;-75
2024/02/21 07:07:49;;;;;;;;;;;6.30;99.90;;;;;;4922018;29;20380;-75
2024/02/21 07:10:19;;;;;;;;;;;6.40;99.90;;;;;;4934109;29;20003;-75
2024/02/21 07:12:48;;;;;;;;;;;6.50;99.90;;;;;;4922231;29;20300;-76
2024/02/21 07:15:17;;;;;;;;;;;6.60;99.90;;;;;;4931559;29;19926;-76
2024/02/21 07:17:45;;;;;;;;;;;6.70;99.90;;;;;;4914207;29;19926;-75
2024/02/21 07:20:14;;;;;;;;;;;6.80;99.90;;;;;;4918840;29;20301;-76
2024/02/21 07:22:42;;;;;;;;;;;6.80;99.90;;;;;;4936775;29;19923;-75
2024/02/21 07:25:10;;;;;;;;;;;6.90;99.90;;;;;;4919739;29;19930;-76
2024/02/21 07:27:40;;;;;;;;;;;7.00;99.90;;;;;;4918113;29;19969;-76
2024/02/21 07:30:09;;;;;;;;;;;7.00;99.90;;;;;;4918753;29;19923;-76
2024/02/21 07:32:40;;;;;;;;;;;7.10;99.90;;;;;;4936187;29;20014;-75
2024/02/21 07:35:10;;;;;;;;;;;7.20;99.90;;;;;;4914290;29;19923;-75
2024/02/21 07:37:39;;;;;;;;;;;7.30;99.90;;;;;;4913874;29;19947;-76
2024/02/21 07:40:13;;;;;;;;;;;7.40;99.90;;;;;;4934492;29;19922;-76
2024/02/21 07:42:46;;;;;;;;;;;7.40;99.90;;;;;;4920864;29;19922;-76
2024/02/21 07:45:24;;;;;;;;;;;7.50;99.90;;;;;;4937371;29;19970;-76
2024/02/21 07:47:52;;;;;;;;;;;7.60;99.90;;;;;;4929639;29;19951;-76
2024/02/21 07:50:21;;;;;;;;;;;7.60;99.90;;;;;;4929787;29;19923;-76
2024/02/21 07:52:50;;;;;;;;;;;7.70;99.90;;;;;;4933417;29;19923;-76
2024/02/21 07:55:20;;;;;;;;;;;7.70;99.90;;;;;;4913593;29;19923;-76
2024/02/21 07:57:50;;;;;;;;;;;7.80;99.90;;;;;;4929697;29;20288;-76
2024/02/21 08:00:21;;;;;;;;;;;6.90;99.90;;;;;;4912077;29;19923;-76
2024/02/21 08:02:50;;;;;;;;;;;7.80;99.90;;;;;;4927425;29;19923;-75
2024/02/21 08:05:18;;;;;;;;;;;8.00;99.90;;;;;;4914372;29;20030;-76
2024/02/21 08:07:47;;;;;;;;;;;8.40;99.90;;;;;;4916040;29;20387;-77
2024/02/21 08:10:17;;;;;;;;;;;8.00;99.90;;;;;;4918701;29;19927;-77
2024/02/21 08:12:45;;;;;;;;;;;8.10;99.90;;;;;;4916837;29;20654;-76
2024/02/21 08:15:16;;;;;;;;;;;8.10;99.90;;;;;;4926782;29;20014;-76
2024/02/21 08:17:45;;;;;;;;;;;8.30;99.90;;;;;;4931069;29;19923;-78
2024/02/21 08:20:13;;;;;;;;;;;8.30;99.90;;;;;;4927965;29;19930;-75
2024/02/21 08:22:41;;;;;;;;;;;8.30;99.90;;;;;;4931541;29;19922;-76
2024/02/21 08:25:10;;;;;;;;;;;8.40;99.90;;;;;;4926529;29;20010;-76
2024/02/21 08:27:38;;;;;;;;;;;8.50;99.90;;;;;;4933123;29;20033;-76
2024/02/21 08:30:07;;;;;;;;;;;8.50;99.90;;;;;;4909249;29;19927;-76
2024/02/21 08:32:37;;;;;;;;;;;8.50;99.90;;;;;;4905467;29;20031;-76
2024/02/21 08:35:06;;;;;;;;;;;8.70;99.90;;;;;;4928588;29;19934;-75
2024/02/21 08:37:34;;;;;;;;;;;8.80;99.90;;;;;;4925669;29;19927;-77
2024/02/21 08:40:08;;;;;;;;;;;8.80;99.90;;;;;;4930191;29;20320;-78
2024/02/21 08:42:37;;;;;;;;;;;9.00;99.90;;;;;;4926902;29;19962;-75
2024/02/21 08:45:07;;;;;;;;;;;9.00;99.90;;;;;;4927364;29;20013;-76
2024/02/21 08:47:36;;;;;;;;;;;9.10;99.90;;;;;;4928759;29;20340;-77
2024/02/21 08:50:06;;;;;;;;;;;9.10;99.90;;;;;;4923400;29;20009;-76
2024/02/21 08:52:46;;;;;;;;;;;9.20;99.90;;;;;;4926187;29;19949;-75
2024/02/21 08:55:14;;;;;;;;;;;9.30;99.90;;;;;;4926809;29;20418;-76
2024/02/21 08:57:42;;;;;;;;;;;9.20;99.90;;;;;;4911098;29;20081;-79
2024/02/21 09:00:12;;;;;;;;;;;9.40;99.90;;;;;;4908673;29;19976;-78
2024/02/21 09:02:43;;;;;;;;;;;9.20;99.90;;;;;;4923817;29;19944;-78
2024/02/21 09:05:12;;;;;;;;;;;9.30;99.90;;;;;;4927789;29;20029;-75
2024/02/21 09:07:40;;;;;;;;;;;9.60;99.90;;;;;;4927413;29;20013;-75
2024/02/21 09:10:09;;;;;;;;;;;9.80;99.90;;;;;;4926020;29;19931;-76
2024/02/21 09:12:37;;;;;;;;;;;9.80;99.90;;;;;;4913142;29;19931;-78
2024/02/21 09:15:06;;;;;;;;;;;9.50;99.90;;;;;;4928613;29;20467;-75
2024/02/21 09:17:34;;;;;;;;;;;9.40;99.90;;;;;;4925782;29;19923;-76
2024/02/21 09:20:04;;;;;;;;;;;9.30;99.90;;;;;;4911668;29;19934;-76
2024/02/21 09:22:34;;;;;;;;;;;9.40;99.90;;;;;;4907844;29;19923;-75
2024/02/21 09:25:03;;;;;;;;;;;9.50;99.90;;;;;;4904010;29;19930;-76
2024/02/21 09:27:31;;;;;;;;;;;9.60;99.90;;;;;;4913168;29;19922;-76
2024/02/21 09:30:00;;;;;;;;;;;9.60;99.90;;;;;;4919731;29;19923;-76
2024/02/21 09:32:28;;;;;;;;;;;9.50;99.90;;;;;;4923947;29;19922;-77
2024/02/21 09:34:57;;;;;;;;;;;9.70;99.90;;;;;;4925295;29;20467;-76
2024/02/21 09:37:31;;;;;;;;;;;10.00;99.90;;;;;;4922606;29;19977;-76
2024/02/21 09:39:59;;;;;;;;;;;9.90;99.90;;;;;;4929287;29;19930;-76
2024/02/21 09:42:31;;;;;;;;;;;10.10;99.90;;;;;;4925681;29;20021;-79
2024/02/21 09:44:59;;;;;;;;;;;9.80;99.90;;;;;;4923564;29;19922;-76
2024/02/21 09:47:31;;;;;;;;;;;9.50;99.90;;;;;;4912183;29;20318;-77
2024/02/21 09:50:01;;;;;;;;;;;9.50;99.90;;;;;;4912814;29;20005;-76
2024/02/21 09:52:31;;;;;;;;;;;9.70;99.90;;;;;;4933068;29;19930;-77
2024/02/21 09:54:59;;;;;;;;;;;10.00;99.90;;;;;;4912934;29;19923;-78
2024/02/21 09:57:28;;;;;;;;;;;10.50;99.90;;;;;;4917219;29;19937;-76
2024/02/21 09:59:58;;;;;;;;;;;10.50;99.90;;;;;;4914251;29;19923;-76
2024/02/21 10:02:27;;;;;;;;;;;10.80;99.90;;;;;;4918544;29;20440;-75
2024/02/21 10:04:55;;;;;;;;;;;10.80;99.90;;;;;;4913023;29;19975;-76
2024/02/21 10:07:25;;;;;;;;;;;10.90;99.90;;;;;;4915060;29;19922;-76
2024/02/21 10:10:03;;;;;;;;;;;11.00;99.90;;;;;;4918863;29;19927;-77
2024/02/21 10:12:31;;;;;;;;;;;10.70;99.90;;;;;;4930537;29;20383;-77
2024/02/21 10:15:02;;;;;;;;;;;10.60;99.90;;;;;;4917136;29;19939;-76
2024/02/21 10:17:31;;;;;;;;;;;10.70;99.90;;;;;;4935504;29;19958;-76
2024/02/21 10:20:07;;;;;;;;;;;11.10;99.90;;;;;;4931771;29;19930;-75
2024/02/21 10:22:39;;;;;;;;;;;10.90;99.90;;;;;;4913785;29;20297;-75
2024/02/21 10:25:13;;;;;;;;;;;10.60;99.90;;;;;;4916494;29;20300;-78
2024/02/21 10:27:42;;;;;;;;;;;10.90;99.90;;;;;;4928765;29;19929;-75
2024/02/21 10:30:14;;;;;;;;;;;11.10;99.90;;;;;;4914039;29;19961;-75
2024/02/21 10:32:49;;;;;;;;;;;11.30;99.90;;;;;;4932025;29;20005;-75
2024/02/21 10:35:26;;;;;;;;;;;11.30;99.80;;;;;;4911870;29;19946;-77
2024/02/21 10:37:55;;;;;;;;;;;11.30;99.90;;;;;;4913726;29;19927;-78
2024/02/21 10:40:26;;;;;;;;;;;11.30;99.60;;;;;;4923761;29;19923;-76
2024/02/21 10:42:58;;;;;;;;;;;11.10;98.70;;;;;;4910727;29;19926;-75
2024/02/21 10:45:29;;;;;;;;;;;11.30;98.50;;;;;;4912047;29;19927;-75
2024/02/21 10:48:02;;;;;;;;;;;11.50;98.30;;;;;;4927035;29;20444;-76
2024/02/21 10:50:33;;;;;;;;;;;11.40;98.00;;;;;;4930255;29;20464;-77
2024/02/21 10:53:06;;;;;;;;;;;11.00;98.80;;;;;;4930406;29;20368;-75
2024/02/21 10:55:38;;;;;;;;;;;11.00;99.80;;;;;;4926497;29;19930;-75
2024/02/21 10:58:07;;;;;;;;;;;10.80;99.50;;;;;;4919380;29;19993;-75
2024/02/21 11:00:36;;;;;;;;;;;10.70;99.90;;;;;;4930846;29;19931;-76
2024/02/21 11:03:05;;;;;;;;;;;10.90;99.90;;;;;;4929940;29;19923;-75
2024/02/21 11:05:34;;;;;;;;;;;10.90;99.90;;;;;;4911766;29;19926;-78
2024/02/21 11:08:03;;;;;;;;;;;10.90;99.90;;;;;;4928166;29;19927;-78
2024/02/21 11:10:31;;;;;;;;;;;10.80;99.90;;;;;;4918862;29;19930;-77
2024/02/21 11:13:08;;;;;;;;;;;10.70;99.90;;;;;;4909612;29;20280;-75
2024/02/21 11:15:36;;;;;;;;;;;10.60;99.90;;;;;;4914465;29;20021;-74
2024/02/21 11:18:05;;;;;;;;;;;10.60;99.90;;;;;;4929304;29;19978;-77
2024/02/21 11:20:35;;;;;;;;;;;10.60;99.90;;;;;;4913778;29;19994;-75
2024/02/21 11:23:07;;;;;;;;;;;10.60;99.90;;;;;;4910714;29;19923;-77
2024/02/21 11:25:35;;;;;;;;;;;10.60;99.90;;;;;;4926882;29;19930;-79
2024/02/21 11:28:05;;;;;;;;;;;10.70;99.90;;;;;;4910344;29;19923;-79
2024/02/21 11:30:38;;;;;;;;;;;10.80;99.90;;;;;;4914712;29;19923;-79
2024/02/21 11:33:08;;;;;;;;;;;10.80;99.90;;;;;;4929308;29;19981;-78
2024/02/21 11:35:36;;;;;;;;;;;10.80;99.90;;;;;;4911054;29;19927;-76
2024/02/21 11:38:09;;;;;;;;;;;10.90;99.90;;;;;;4928858;29;19930;-77
2024/02/21 11:40:39;;;;;;;;;;;11.00;99.90;;;;;;4927597;29;20376;-75
2024/02/21 11:43:08;;;;;;;;;;;11.00;99.90;;;;;;4913924;29;19929;-77
2024/02/21 11:45:36;;;;;;;;;;;11.10;99.40;;;;;;4907154;29;20001;-76
2024/02/21 11:48:07;;;;;;;;;;;11.10;99.90;;;;;;4921689;29;19937;-79
2024/02/21 11:50:35;;;;;;;;;;;11.20;99.60;;;;;;4912021;29;19927;-76
2024/02/21 11:53:05;;;;;;;;;;;11.30;99.60;;;;;;4911300;29;19929;-78
2024/02/21 11:55:34;;;;;;;;;;;11.20;98.90;;;;;;4914702;29;19923;-75
2024/02/21 11:58:05;;;;;;;;;;;11.30;99.60;;;;;;4911017;29;19929;-78
2024/02/21 12:00:34;;;;;;;;;;;11.40;98.60;;;;;;4932382;29;20394;-78
2024/02/21 12:03:02;;;;;;;;;;;11.40;98.00;;;;;;4911934;29;19922;-75
2024/02/21 12:05:32;;;;;;;;;;;11.40;98.10;;;;;;4931312;29;19922;-78
2024/02/21 12:08:01;;;;;;;;;;;11.20;98.00;;;;;;4930033;29;19926;-76
2024/02/21 12:10:30;;;;;;;;;;;11.10;98.10;;;;;;4930635;29;20355;-76
2024/02/21 12:13:09;;;;;;;;;;;11.00;98.60;;;;;;4916218;29;19926;-75
2024/02/21 12:15:39;;;;;;;;;;;10.90;98.90;;;;;;4925372;29;20344;-75
2024/02/21 12:18:08;;;;;;;;;;;10.80;99.30;;;;;;4914185;29;19922;-79
2024/02/21 12:20:38;;;;;;;;;;;10.80;99.20;;;;;;4907838;29;19931;-75
2024/02/21 12:23:09;;;;;;;;;;;10.80;99.00;;;;;;4925258;29;19979;-77
2024/02/21 12:25:40;;;;;;;;;;;10.80;99.20;;;;;;4921287;29;19922;-79
2024/02/21 12:28:09;;;;;;;;;;;10.80;99.50;;;;;;4912857;29;20020;-75
2024/02/21 12:30:39;;;;;;;;;;;10.90;99.90;;;;;;4912286;29;19958;-75
2024/02/21 12:33:07;;;;;;;;;;;10.90;99.30;;;;;;4912699;29;19927;-74
2024/02/21 12:35:37;;;;;;;;;;;11.10;99.50;;;;;;4910702;29;19978;-75
2024/02/21 12:38:06;;;;;;;;;;;11.20;98.80;;;;;;4925889;29;19923;-79
2024/02/21 12:40:35;;;;;;;;;;;11.20;99.20;;;;;;4912478;29;19995;-77
2024/02/21 12:43:04;;;;;;;;;;;11.20;98.70;;;;;;4929997;29;20406;-76
2024/02/21 12:45:34;;;;;;;;;;;11.10;97.70;;;;;;4883628;29;19922;-75
2024/02/21 12:48:05;;;;;;;;;;;11.10;97.70;;;;;;4910474;29;19930;-74
2024/02/21 12:50:35;;;;;;;;;;;11.10;97.50;;;;;;4907302;29;19950;-74
2024/02/21 12:53:10;;;;;;;;;;;11.10;97.90;;;;;;4915833;29;19929;-74
2024/02/21 12:55:55;;;;;;;;;;;11.10;97.20;;;;;;4909078;29;20260;-78
2024/02/21 12:58:23;;;;;;;;;;;11.20;96.70;;;;;;4926247;29;20311;-76
2024/02/21 13:00:51;;;;;;;;;;;11.30;97.00;;;;;;4912761;29;20364;-76
2024/02/21 13:03:21;;;;;;;;;;;11.20;95.30;;;;;;4926515;29;19923;-75
2024/02/21 13:05:49;;;;;;;;;;;11.30;95.80;;;;;;4911036;29;19951;-78
2024/02/21 13:08:21;;;;;;;;;;;11.30;96.80;;;;;;4909943;29;19946;-74
2024/02/21 13:10:49;;;;;;;;;;;11.30;96.50;;;;;;4905919;29;19923;-75
2024/02/21 13:13:21;;;;;;;;;;;11.20;95.90;;;;;;4930130;29;19950;-75
2024/02/21 13:15:49;;;;;;;;;;;11.30;96.90;;;;;;4924550;29;20021;-75
2024/02/21 13:18:17;;;;;;;;;;;11.20;95.90;;;;;;4909889;29;19962;-75
2024/02/21 13:20:46;;;;;;;;;;;11.20;96.50;;;;;;4915501;29;19950;-75
2024/02/21 13:23:14;;;;;;;;;;;11.20;97.20;;;;;;4913534;29;19978;-77
2024/02/21 13:25:45;;;;;;;;;;;11.10;97.10;;;;;;4908603;29;19929;-79
2024/02/21 13:28:16;;;;;;;;;;;11.10;96.60;;;;;;4926809;29;20025;-75
2024/02/21 13:30:47;;;;;;;;;;;11.00;97.00;;;;;;4925640;29;19926;-75
2024/02/21 13:33:16;;;;;;;;;;;11.00;97.20;;;;;;4907261;29;19977;-78
2024/02/21 13:35:46;;;;;;;;;;;11.00;97.30;;;;;;4929271;29;20407;-76
2024/02/21 13:38:14;;;;;;;;;;;11.00;97.40;;;;;;4910328;29;19930;-78
2024/02/21 13:40:45;;;;;;;;;;;11.00;96.70;;;;;;4927819;29;20013;-79
2024/02/21 13:43:13;;;;;;;;;;;11.00;97.30;;;;;;4928296;29;20364;-77
2024/02/21 13:45:56;;;;;;;;;;;11.00;97.00;;;;;;4913930;29;19930;-77
2024/02/21 13:48:24;;;;;;;;;;;11.00;97.10;;;;;;4911420;29;20013;-74
2024/02/21 13:50:53;;;;;;;;;;;11.10;96.90;;;;;;4910028;29;19962;-74
2024/02/21 13:53:22;;;;;;;;;;;11.40;97.40;;;;;;4906813;29;20330;-78
2024/02/21 13:55:52;;;;;;;;;;;11.60;96.50;;;;;;4895287;29;20464;-75
2024/02/21 13:58:21;;;;;;;;;;;11.90;96.10;;;;;;4919066;29;19927;-78
2024/02/21 14:00:50;;;;;;;;;;;12.00;94.40;;;;;;4925805;29;19926;-76
2024/02/21 14:03:20;;;;;;;;;;;12.10;94.50;;;;;;4913256;29;19974;-78
2024/02/21 14:05:49;;;;;;;;;;;12.10;93.50;;;;;;4912268;29;20368;-79
2024/02/21 14:08:17;;;;;;;;;;;12.00;92.50;;;;;;4924969;29;19922;-80
2024/02/21 14:10:45;;;;;;;;;;;12.10;91.80;;;;;;4924704;29;20416;-79
2024/02/21 14:13:17;;;;;;;;;;;11.90;90.90;;;;;;4910009;29;20021;-76
2024/02/21 14:18:24;;;;;;;5.90;1.08;;;11.80;91.40;;;;;;5117526;27;20476;-76
2024/02/21 14:20:53;;;;;;;5.72;1.30;;;11.60;91.90;;;;;;5116318;28;20073;-82
2024/02/21 14:23:21;;;;;;;4.78;1.10;;;11.60;92.50;;;;;;5105717;28;20048;-77
2024/02/21 14:25:50;;;;;;;7.25;1.45;;;11.50;92.70;;;;;;5097953;28;20042;-80
2024/02/21 14:28:19;;;;;;;4.63;1.83;;;11.40;92.70;;;;;;5096672;28;20139;-78
2024/02/21 14:30:53;;;;;;;9.45;4.22;;;11.40;93.00;;;;;;5101604;28;20059;-80
2024/02/21 14:33:23;;;;;;;6.95;2.55;;;11.40;93.40;;;;;;5103794;28;20067;-78
2024/02/21 14:35:52;;;;;;;7.25;1.25;;;11.30;93.20;;;;;;5118173;27;20036;-81
2024/02/21 14:38:21;;;;;;;7.88;1.65;;;11.20;93.40;;;;;;5104121;28;20051;-80
2024/02/21 14:40:50;;;;;;;4.45;1.73;;;11.20;93.30;;;;;;5098740;28;20144;-75